createdAt,value
2023-05-06T00:00:15.857Z,101975.98
2023-05-06T00:03:04.090Z,101973.80
2023-05-06T00:05:32.197Z,101979.39
2023-05-06T00:08:00.130Z,101976.33
2023-05-06T00:10:28.141Z,101981.00
2023-05-06T00:12:56.170Z,101979.52
2023-05-06T00:15:24.147Z,101978.02
2023-05-06T00:17:52.227Z,101980.14
2023-05-06T00:20:20.782Z,101977.35
2023-05-06T00:22:48.809Z,101978.60
2023-05-06T00:25:16.809Z,101978.35
2023-05-06T00:27:44.712Z,101975.10
2023-05-06T00:30:12.994Z,101972.48
2023-05-06T00:32:41.096Z,101974.44
2023-05-06T00:35:09.646Z,101974.90
2023-05-06T00:37:38.494Z,101972.59
2023-05-06T00:40:07.355Z,101976.02
2023-05-06T00:42:35.292Z,101980.89
2023-05-06T00:45:04.300Z,101981.28
2023-05-06T00:47:32.333Z,101978.98
2023-05-06T00:50:00.289Z,101977.92
2023-05-06T00:52:28.366Z,101976.27
2023-05-06T00:54:56.542Z,101973.90
2023-05-06T00:57:24.847Z,101974.15
2023-05-06T00:59:52.863Z,101975.52
2023-05-06T01:02:21.000Z,101974.46
2023-05-06T01:04:49.689Z,101974.95
2023-05-06T01:07:31.961Z,101979.00
2023-05-06T01:10:06.694Z,101982.86
2023-05-06T01:12:38.182Z,101983.42
2023-05-06T01:15:13.970Z,101982.17
2023-05-06T01:17:46.574Z,101974.90
2023-05-06T01:20:15.449Z,101968.87
2023-05-06T01:22:43.428Z,101973.18
2023-05-06T01:25:21.328Z,101970.65
2023-05-06T01:27:50.135Z,101968.09
2023-05-06T01:30:18.601Z,101965.42
2023-05-06T01:32:53.234Z,101964.89
2023-05-06T01:35:28.724Z,101965.16
2023-05-06T01:38:06.369Z,101967.17
2023-05-06T01:40:34.284Z,101971.21
2023-05-06T01:43:02.480Z,101969.06
2023-05-06T01:45:31.957Z,101971.69
2023-05-06T01:47:59.983Z,101970.50
2023-05-06T01:50:28.611Z,101967.39
2023-05-06T01:53:00.214Z,101962.82
2023-05-06T01:55:28.284Z,101957.23
2023-05-06T01:57:59.071Z,101955.08
2023-05-06T02:00:27.131Z,101943.18
2023-05-06T02:02:55.204Z,101942.73
2023-05-06T02:05:23.486Z,101940.66
2023-05-06T02:07:52.163Z,101940.38
2023-05-06T02:10:20.532Z,101939.75
2023-05-06T02:12:53.133Z,101940.81
2023-05-06T02:15:21.208Z,101947.05
2023-05-06T02:17:49.680Z,101943.68
2023-05-06T02:20:17.825Z,101940.23
2023-05-06T02:22:46.048Z,101935.17
2023-05-06T02:25:14.039Z,101936.28
2023-05-06T02:27:41.972Z,101931.44
2023-05-06T02:30:10.256Z,101932.81
2023-05-06T02:32:38.261Z,101931.80
2023-05-06T02:35:07.106Z,101934.00
2023-05-06T02:37:35.231Z,101931.98
2023-05-06T02:40:03.253Z,101933.10
2023-05-06T02:42:34.845Z,101934.29
2023-05-06T02:45:03.105Z,101934.21
2023-05-06T02:47:33.542Z,101935.16
2023-05-06T02:50:01.548Z,101936.65
2023-05-06T02:52:29.518Z,101935.69
2023-05-06T02:54:57.518Z,101932.78
2023-05-06T02:57:25.772Z,101931.92
2023-05-06T02:59:53.792Z,101936.05
2023-05-06T03:02:21.882Z,101936.65
2023-05-06T03:04:49.950Z,101933.25
2023-05-06T03:07:18.109Z,101932.25
2023-05-06T03:09:46.383Z,101933.38
2023-05-06T03:12:15.130Z,101931.67
2023-05-06T03:14:43.244Z,101931.01
2023-05-06T03:17:12.109Z,101936.14
2023-05-06T03:19:40.076Z,101935.58
2023-05-06T03:22:09.453Z,101930.13
2023-05-06T03:24:38.734Z,101927.77
2023-05-06T03:27:06.873Z,101932.52
2023-05-06T03:29:35.104Z,101929.86
2023-05-06T03:32:04.236Z,101926.51
2023-05-06T03:34:33.709Z,101926.13
2023-05-06T03:37:02.126Z,101924.30
2023-05-06T03:39:32.333Z,101923.51
2023-05-06T03:42:04.635Z,101920.98
2023-05-06T03:44:47.847Z,101919.69
2023-05-06T03:47:17.967Z,101925.27
2023-05-06T03:49:46.717Z,101923.13
2023-05-06T03:52:14.680Z,101924.30
2023-05-06T03:54:42.855Z,101923.01
2023-05-06T03:57:10.814Z,101924.52
2023-05-06T03:59:39.048Z,101925.96
2023-05-06T04:02:07.527Z,101931.35
2023-05-06T04:04:36.834Z,101932.34
2023-05-06T04:07:04.997Z,101931.88
2023-05-06T04:09:33.536Z,101936.39
2023-05-06T04:12:03.896Z,101934.05
2023-05-06T04:14:34.365Z,101931.02
2023-05-06T04:17:02.411Z,101928.09
2023-05-06T04:19:30.426Z,101924.66
2023-05-06T04:21:59.374Z,101918.93
2023-05-06T04:24:28.663Z,101917.02
2023-05-06T04:26:57.179Z,101920.84
2023-05-06T04:29:25.592Z,101925.11
2023-05-06T04:32:03.559Z,101927.77
2023-05-06T04:34:33.076Z,101927.84
2023-05-06T04:37:02.954Z,101926.66
2023-05-06T04:39:39.464Z,101924.80
2023-05-06T04:42:08.347Z,101922.30
2023-05-06T04:44:47.712Z,101924.30
2023-05-06T04:47:16.266Z,101919.36
2023-05-06T04:49:45.917Z,101916.36
2023-05-06T04:52:14.531Z,101915.36
2023-05-06T04:54:44.820Z,101914.13
2023-05-06T04:57:13.526Z,101913.77
2023-05-06T04:59:43.177Z,101909.52
2023-05-06T05:02:11.807Z,101906.57
2023-05-06T05:04:40.922Z,101908.75
2023-05-06T05:07:11.773Z,101907.39
2023-05-06T05:09:39.867Z,101899.17
2023-05-06T05:12:08.564Z,101899.52
2023-05-06T05:14:41.010Z,101903.00
2023-05-06T05:17:12.363Z,101898.77
2023-05-06T05:19:41.189Z,101894.70
2023-05-06T05:22:09.893Z,101893.75
2023-05-06T05:24:38.928Z,101887.23
2023-05-06T05:27:07.709Z,101883.73
2023-05-06T05:29:38.740Z,101883.46
2023-05-06T05:32:07.786Z,101883.15
2023-05-06T05:34:36.908Z,101881.38
2023-05-06T05:37:07.290Z,101883.98
2023-05-06T05:39:35.621Z,101882.58
2023-05-06T05:42:03.940Z,101879.13
2023-05-06T05:44:33.507Z,101884.86
2023-05-06T05:47:02.651Z,101880.10
2023-05-06T05:49:31.367Z,101881.02
2023-05-06T05:51:59.598Z,101879.55
2023-05-06T05:54:28.832Z,101882.17
2023-05-06T05:56:58.153Z,101877.67
2023-05-06T05:59:26.392Z,101879.30
2023-05-06T06:01:56.374Z,101882.74
2023-05-06T06:04:25.791Z,101881.98
2023-05-06T06:06:57.910Z,101883.09
2023-05-06T06:09:26.677Z,101883.39
2023-05-06T06:11:54.896Z,101891.16
2023-05-06T06:14:23.310Z,101888.36
2023-05-06T06:16:51.644Z,101885.30
2023-05-06T06:19:19.920Z,101883.75
2023-05-06T06:21:48.514Z,101885.72
2023-05-06T06:24:18.143Z,101881.98
2023-05-06T06:26:46.240Z,101879.61
2023-05-06T06:29:14.444Z,101884.15
2023-05-06T06:31:42.846Z,101877.93
2023-05-06T06:34:12.691Z,101882.69
2023-05-06T06:36:45.206Z,101878.73
2023-05-06T06:39:13.286Z,101879.01
2023-05-06T06:41:42.273Z,101878.31
2023-05-06T06:44:10.223Z,101874.27
2023-05-06T06:46:38.973Z,101878.33
2023-05-06T06:49:06.944Z,101883.15
2023-05-06T06:51:35.438Z,101887.44
2023-05-06T06:54:03.571Z,101889.71
2023-05-06T06:56:32.036Z,101888.27
2023-05-06T06:59:00.144Z,101890.66
2023-05-06T07:01:28.301Z,101888.89
2023-05-06T07:03:56.360Z,101891.23
2023-05-06T07:06:25.184Z,101893.59
2023-05-06T07:08:53.137Z,101896.45
2023-05-06T07:11:21.637Z,101906.91
2023-05-06T07:13:50.061Z,101903.02
2023-05-06T07:16:18.187Z,101902.67
2023-05-06T07:18:46.134Z,101900.66
2023-05-06T07:21:15.369Z,101902.02
2023-05-06T07:23:45.534Z,101897.59
2023-05-06T07:26:13.492Z,101895.69
2023-05-06T07:28:41.456Z,101895.19
2023-05-06T07:31:09.420Z,101897.16
2023-05-06T07:33:37.467Z,101894.13
2023-05-06T07:36:05.518Z,101892.45
2023-05-06T07:38:33.458Z,101883.84
2023-05-06T07:41:01.622Z,101879.25
2023-05-06T07:43:29.634Z,101881.52
2023-05-06T07:46:02.784Z,101882.29
2023-05-06T07:48:31.328Z,101879.52
2023-05-06T07:50:59.811Z,101881.02
2023-05-06T07:53:28.613Z,101875.75
2023-05-06T07:56:02.093Z,101876.84
2023-05-06T07:58:31.335Z,101879.37
2023-05-06T08:01:00.638Z,101879.79
2023-05-06T08:03:29.214Z,101883.02
2023-05-06T08:05:57.426Z,101882.28
2023-05-06T08:08:28.151Z,101877.70
2023-05-06T08:10:58.054Z,101881.13
2023-05-06T08:13:26.472Z,101877.22
2023-05-06T08:15:54.699Z,101878.80
2023-05-06T08:18:23.556Z,101876.95
2023-05-06T08:20:51.735Z,101874.94
2023-05-06T08:23:20.617Z,101871.06
2023-05-06T08:25:48.822Z,101884.52
2023-05-06T08:28:17.005Z,101882.98
2023-05-06T08:30:47.801Z,101877.92
2023-05-06T08:33:16.075Z,101882.36
2023-05-06T08:35:45.031Z,101883.10
2023-05-06T08:38:13.109Z,101888.66
2023-05-06T08:40:44.631Z,101888.17
2023-05-06T08:43:14.464Z,101893.88
2023-05-06T08:45:42.790Z,101888.23
2023-05-06T08:48:10.981Z,101885.03
2023-05-06T08:50:42.199Z,101891.98
2023-05-06T08:53:13.822Z,101888.04
2023-05-06T08:55:42.304Z,101887.05
2023-05-06T08:58:11.477Z,101890.08
2023-05-06T09:00:39.615Z,101895.67
2023-05-06T09:03:07.719Z,101894.52
2023-05-06T09:05:36.012Z,101893.16
2023-05-06T09:08:04.080Z,101897.08
2023-05-06T09:10:52.337Z,101896.66
2023-05-06T09:13:20.540Z,101898.98
2023-05-06T09:15:48.951Z,101900.71
2023-05-06T09:18:17.027Z,101905.54
2023-05-06T09:20:46.712Z,101905.52
2023-05-06T09:23:16.232Z,101909.22
2023-05-06T09:25:45.958Z,101909.11
2023-05-06T09:28:14.206Z,101913.94
2023-05-06T09:30:43.565Z,101912.06
2023-05-06T09:33:13.027Z,101916.17
2023-05-06T09:35:42.854Z,101915.98
2023-05-06T09:38:11.075Z,101919.13
2023-05-06T09:40:39.394Z,101915.92
2023-05-06T09:43:08.997Z,101915.05
2023-05-06T09:45:37.069Z,101915.98
2023-05-06T09:48:06.750Z,101914.75
2023-05-06T09:50:35.881Z,101912.92
2023-05-06T09:53:04.844Z,101913.95
2023-05-06T09:55:32.780Z,101911.95
2023-05-06T09:58:00.916Z,101910.23
2023-05-06T10:00:30.094Z,101905.84
2023-05-06T10:02:58.601Z,101902.90
2023-05-06T10:05:26.751Z,101902.00
2023-05-06T10:07:54.876Z,101902.39
2023-05-06T10:10:25.245Z,101902.48
2023-05-06T10:12:53.486Z,101898.29
2023-05-06T10:15:21.960Z,101897.80
2023-05-06T10:17:50.615Z,101892.44
2023-05-06T10:20:18.712Z,101888.81
2023-05-06T10:22:56.699Z,101888.73
2023-05-06T10:25:36.215Z,101886.77
2023-05-06T10:28:09.794Z,101882.27
2023-05-06T10:30:41.784Z,101874.98
2023-05-06T10:33:10.980Z,101874.59
2023-05-06T10:35:42.265Z,101872.33
2023-05-06T10:38:15.582Z,101872.14
2023-05-06T10:40:44.070Z,101872.54
2023-05-06T10:43:31.025Z,101869.99
2023-05-06T10:45:59.757Z,101870.28
2023-05-06T10:48:28.568Z,101868.63
2023-05-06T10:51:22.193Z,101868.58
2023-05-06T10:53:55.101Z,101870.14
2023-05-06T10:56:23.189Z,101867.59
2023-05-06T10:58:51.205Z,101868.64
2023-05-06T11:01:28.598Z,101866.22
2023-05-06T11:03:56.844Z,101863.62
2023-05-06T11:06:34.705Z,101860.34
2023-05-06T11:09:04.425Z,101857.66
2023-05-06T11:12:02.097Z,101862.30
2023-05-06T11:14:30.683Z,101863.77
2023-05-06T11:16:59.519Z,101858.13
2023-05-06T11:19:31.634Z,101856.55
2023-05-06T11:22:01.207Z,101848.66
2023-05-06T11:24:39.088Z,101847.92
2023-05-06T11:27:07.220Z,101845.56
2023-05-06T11:29:35.304Z,101853.25
2023-05-06T11:32:03.898Z,101854.77
2023-05-06T11:34:32.438Z,101854.23
2023-05-06T11:37:02.808Z,101848.08
2023-05-06T11:39:39.763Z,101840.36
2023-05-06T11:42:09.588Z,101843.27
2023-05-06T11:44:38.335Z,101844.85
2023-05-06T11:47:07.718Z,101846.96
2023-05-06T11:49:40.982Z,101849.58
2023-05-06T11:52:09.927Z,101851.73
2023-05-06T11:54:41.849Z,101853.80
2023-05-06T11:57:10.363Z,101853.86
2023-05-06T11:59:40.429Z,101851.41
2023-05-06T12:02:09.773Z,101848.52
2023-05-06T12:04:38.982Z,101855.48
2023-05-06T12:07:09.895Z,101856.52
2023-05-06T12:09:43.483Z,101855.34
2023-05-06T12:12:11.697Z,101854.08
2023-05-06T12:14:39.756Z,101858.48
2023-05-06T12:17:07.664Z,101855.58
2023-05-06T12:19:35.987Z,101859.73
2023-05-06T12:22:18.150Z,101855.92
2023-05-06T12:24:46.959Z,101861.39
2023-05-06T12:27:28.639Z,101861.70
2023-05-06T12:29:56.966Z,101860.40
2023-05-06T12:32:25.034Z,101855.95
2023-05-06T12:34:55.469Z,101854.85
2023-05-06T12:37:25.487Z,101852.80
2023-05-06T12:39:54.440Z,101854.85
2023-05-06T12:42:26.433Z,101856.77
2023-05-06T12:44:55.840Z,101855.44
2023-05-06T12:47:25.327Z,101850.56
2023-05-06T12:49:54.670Z,101856.34
2023-05-06T12:52:23.575Z,101856.23
2023-05-06T12:54:54.448Z,101853.50
2023-05-06T12:57:23.458Z,101856.48
2023-05-06T12:59:51.753Z,101855.63
2023-05-06T13:02:19.786Z,101856.27
2023-05-06T13:04:47.931Z,101855.00
2023-05-06T13:07:16.085Z,101851.49
2023-05-06T13:09:44.761Z,101857.10
2023-05-06T13:12:13.149Z,101859.06
2023-05-06T13:14:41.212Z,101859.03
2023-05-06T13:17:09.364Z,101861.35
2023-05-06T13:19:37.799Z,101861.58
2023-05-06T13:22:06.186Z,101866.41
2023-05-06T13:24:34.501Z,101869.00
2023-05-06T13:27:02.489Z,101873.27
2023-05-06T13:29:30.612Z,101872.37
2023-05-06T13:31:58.571Z,101866.36
2023-05-06T13:34:26.861Z,101872.38
2023-05-06T13:36:54.891Z,101872.05
2023-05-06T13:39:23.217Z,101872.48
2023-05-06T13:41:51.376Z,101873.02
2023-05-06T13:44:20.072Z,101869.55
2023-05-06T13:46:48.542Z,101872.58
2023-05-06T13:49:17.028Z,101870.73
2023-05-06T13:51:45.308Z,101873.98
2023-05-06T13:54:13.380Z,101875.13
2023-05-06T13:56:41.389Z,101870.44
2023-05-06T13:59:11.828Z,101870.88
2023-05-06T14:01:40.866Z,101868.70
2023-05-06T14:04:08.832Z,101867.10
2023-05-06T14:06:37.063Z,101870.38
2023-05-06T14:09:06.894Z,101870.38
2023-05-06T14:11:34.965Z,101871.98
2023-05-06T14:14:02.966Z,101867.38
2023-05-06T14:16:31.452Z,101871.52
2023-05-06T14:18:59.662Z,101871.11
2023-05-06T14:21:27.715Z,101867.26
2023-05-06T14:23:55.962Z,101867.57
2023-05-06T14:26:23.888Z,101866.41
2023-05-06T14:28:53.506Z,101865.64
2023-05-06T14:31:21.672Z,101864.27
2023-05-06T14:33:49.743Z,101863.30
2023-05-06T14:36:19.310Z,101868.29
2023-05-06T14:38:47.584Z,101869.59
2023-05-06T14:41:15.603Z,101868.04
2023-05-06T14:43:43.632Z,101867.60
2023-05-06T14:46:12.003Z,101870.55
2023-05-06T14:48:45.401Z,101868.76
2023-05-06T14:51:13.617Z,101871.93
2023-05-06T14:53:41.648Z,101872.98
2023-05-06T14:56:11.670Z,101870.73
2023-05-06T14:58:39.781Z,101870.33
2023-05-06T15:01:08.087Z,101867.91
2023-05-06T15:03:36.661Z,101873.62
2023-05-06T15:06:06.295Z,101872.39
2023-05-06T15:08:34.978Z,101873.83
2023-05-06T15:11:04.296Z,101877.06
2023-05-06T15:13:32.498Z,101874.45
2023-05-06T15:16:01.193Z,101870.78
2023-05-06T15:18:30.706Z,101872.49
2023-05-06T15:21:01.141Z,101871.91
2023-05-06T15:23:30.191Z,101870.84
2023-05-06T15:25:58.321Z,101872.58
2023-05-06T15:28:26.652Z,101870.23
2023-05-06T15:30:54.996Z,101870.08
2023-05-06T15:33:23.578Z,101869.62
2023-05-06T15:35:51.803Z,101866.30
2023-05-06T15:38:19.904Z,101865.52
2023-05-06T15:40:51.381Z,101864.02
2023-05-06T15:43:23.582Z,101864.55
2023-05-06T15:45:52.686Z,101863.73
2023-05-06T15:48:20.843Z,101863.74
2023-05-06T15:50:48.812Z,101864.03
2023-05-06T15:53:18.964Z,101864.63
2023-05-06T15:55:56.615Z,101863.75
2023-05-06T15:58:30.115Z,101866.40
2023-05-06T16:00:58.295Z,101866.36
2023-05-06T16:03:26.839Z,101860.91
2023-05-06T16:05:58.608Z,101861.27
2023-05-06T16:08:27.236Z,101859.35
2023-05-06T16:10:55.251Z,101859.86
2023-05-06T16:13:23.418Z,101861.36
2023-05-06T16:15:51.624Z,101861.58
2023-05-06T16:18:19.708Z,101862.23
2023-05-06T16:20:47.657Z,101866.49
2023-05-06T16:23:16.305Z,101869.38
2023-05-06T16:25:44.528Z,101868.91
2023-05-06T16:28:12.687Z,101869.68
2023-05-06T16:30:44.505Z,101862.86
2023-05-06T16:33:13.427Z,101865.85
2023-05-06T16:35:42.110Z,101868.47
2023-05-06T16:38:10.218Z,101868.71
2023-05-06T16:40:43.358Z,101870.53
2023-05-06T16:43:11.842Z,101870.82
2023-05-06T16:45:41.561Z,101867.98
2023-05-06T16:48:11.989Z,101868.45
2023-05-06T16:50:40.456Z,101871.39
2023-05-06T16:53:08.656Z,101866.91
2023-05-06T16:55:36.998Z,101866.66
2023-05-06T16:58:05.011Z,101865.53
2023-05-06T17:00:33.407Z,101863.45
2023-05-06T17:03:01.831Z,101862.13
2023-05-06T17:05:31.136Z,101862.39
2023-05-06T17:07:59.344Z,101861.92
2023-05-06T17:10:29.608Z,101863.09
2023-05-06T17:12:58.135Z,101864.31
2023-05-06T17:15:26.231Z,101860.01
2023-05-06T17:17:54.272Z,101860.76
2023-05-06T17:20:23.034Z,101858.54
2023-05-06T17:22:51.080Z,101861.17
2023-05-06T17:25:19.159Z,101861.42
2023-05-06T17:27:47.160Z,101865.45
2023-05-06T17:30:15.443Z,101862.58
2023-05-06T17:32:43.516Z,101858.27
2023-05-06T17:35:11.869Z,101862.58
2023-05-06T17:37:40.103Z,101865.30
2023-05-06T17:40:08.742Z,101864.64
2023-05-06T17:42:36.714Z,101864.81
2023-05-06T17:45:05.334Z,101863.02
2023-05-06T17:47:36.526Z,101862.18
2023-05-06T17:50:05.464Z,101864.38
2023-05-06T17:52:33.554Z,101868.31
2023-05-06T17:55:15.697Z,101870.16
2023-05-06T17:57:49.994Z,101873.35
2023-05-06T18:00:18.671Z,101873.02
2023-05-06T18:02:47.101Z,101874.00
2023-05-06T18:05:16.676Z,101873.51
2023-05-06T18:07:44.818Z,101876.77
2023-05-06T18:10:12.892Z,101879.23
2023-05-06T18:12:40.856Z,101884.04
2023-05-06T18:15:09.534Z,101885.02
2023-05-06T18:17:37.947Z,101888.49
2023-05-06T18:20:08.075Z,101890.37
2023-05-06T18:22:36.206Z,101892.21
2023-05-06T18:25:07.286Z,101889.30
2023-05-06T18:27:36.114Z,101890.13
2023-05-06T18:30:05.122Z,101890.05
2023-05-06T18:32:34.355Z,101890.19
2023-05-06T18:35:02.428Z,101893.56
2023-05-06T18:37:30.572Z,101899.77
2023-05-06T18:39:58.952Z,101901.39
2023-05-06T18:42:27.810Z,101904.63
2023-05-06T18:44:56.579Z,101906.50
2023-05-06T18:47:25.971Z,101914.17
2023-05-06T18:49:54.136Z,101910.20
2023-05-06T18:52:22.211Z,101912.20
2023-05-06T18:54:50.502Z,101915.91
2023-05-06T18:57:23.116Z,101914.48
2023-05-06T18:59:51.090Z,101914.58
2023-05-06T19:02:24.909Z,101916.98
2023-05-06T19:04:55.716Z,101919.15
2023-05-06T19:07:23.753Z,101923.52
2023-05-06T19:09:52.389Z,101922.57
2023-05-06T19:12:20.381Z,101923.61
2023-05-06T19:14:48.663Z,101926.86
2023-05-06T19:17:16.670Z,101926.20
2023-05-06T19:19:47.445Z,101926.36
2023-05-06T19:22:16.257Z,101924.27
2023-05-06T19:24:44.326Z,101923.19
2023-05-06T19:27:12.315Z,101921.50
2023-05-06T19:29:40.216Z,101920.80
2023-05-06T19:32:08.700Z,101920.15
2023-05-06T19:34:38.479Z,101917.48
2023-05-06T19:37:07.549Z,101918.13
2023-05-06T19:39:35.549Z,101919.61
2023-05-06T19:42:03.541Z,101921.20
2023-05-06T19:44:31.913Z,101919.97
2023-05-06T19:46:59.880Z,101915.73
2023-05-06T19:49:27.912Z,101919.55
2023-05-06T19:51:56.041Z,101916.56
2023-05-06T19:54:27.043Z,101918.14
2023-05-06T19:56:55.280Z,101920.32
2023-05-06T19:59:23.365Z,101922.69
2023-05-06T20:01:54.248Z,101921.70
2023-05-06T20:04:22.358Z,101919.23
2023-05-06T20:06:50.497Z,101923.55
2023-05-06T20:09:18.498Z,101921.54
2023-05-06T20:11:47.444Z,101927.98
2023-05-06T20:14:16.832Z,101928.76
2023-05-06T20:16:45.099Z,101927.33
2023-05-06T20:19:13.072Z,101929.73
2023-05-06T20:21:43.114Z,101927.33
2023-05-06T20:24:11.543Z,101926.31
2023-05-06T20:26:40.891Z,101926.23
2023-05-06T20:29:08.861Z,101928.89
2023-05-06T20:31:38.599Z,101929.02
2023-05-06T20:34:06.590Z,101931.81
2023-05-06T20:36:35.156Z,101933.65
2023-05-06T20:39:03.279Z,101935.73
2023-05-06T20:41:33.561Z,101937.03
2023-05-06T20:44:01.713Z,101940.65
2023-05-06T20:46:29.908Z,101943.48
2023-05-06T20:48:59.018Z,101945.64
2023-05-06T20:51:30.415Z,101946.23
2023-05-06T20:53:59.711Z,101949.10
2023-05-06T20:56:29.021Z,101950.85
2023-05-06T20:58:57.040Z,101951.77
2023-05-06T21:01:25.972Z,101955.06
2023-05-06T21:03:54.031Z,101951.73
2023-05-06T21:06:21.969Z,101952.80
2023-05-06T21:08:51.876Z,101953.64
2023-05-06T21:11:19.931Z,101952.54
2023-05-06T21:13:49.518Z,101951.70
2023-05-06T21:16:18.141Z,101954.00
2023-05-06T21:18:46.150Z,101955.10
2023-05-06T21:21:14.188Z,101951.27
2023-05-06T21:23:42.113Z,101949.25
2023-05-06T21:26:11.202Z,101947.33
2023-05-06T21:28:39.125Z,101949.52
2023-05-06T21:31:07.518Z,101953.65
2023-05-06T21:33:35.880Z,101956.30
2023-05-06T21:36:04.176Z,101955.59
2023-05-06T21:38:32.087Z,101960.08
2023-05-06T21:41:00.003Z,101959.51
2023-05-06T21:43:27.916Z,101961.71
2023-05-06T21:45:55.922Z,101960.90
2023-05-06T21:48:23.877Z,101963.55
2023-05-06T21:50:55.007Z,101964.02
2023-05-06T21:53:23.023Z,101964.95
2023-05-06T21:55:51.099Z,101964.30
2023-05-06T21:58:19.182Z,101965.02
2023-05-06T22:00:47.271Z,101965.80
2023-05-06T22:03:15.319Z,101969.63
2023-05-06T22:05:43.403Z,101969.59
2023-05-06T22:08:11.670Z,101968.70
2023-05-06T22:10:39.600Z,101967.91
2023-05-06T22:13:07.938Z,101968.38
2023-05-06T22:15:36.044Z,101971.34
2023-05-06T22:18:04.299Z,101970.73
2023-05-06T22:20:33.159Z,101972.94
2023-05-06T22:23:01.085Z,101970.75
2023-05-06T22:25:29.100Z,101972.81
2023-05-06T22:27:57.016Z,101971.21
2023-05-06T22:30:24.919Z,101970.77
2023-05-06T22:32:52.981Z,101970.29
2023-05-06T22:35:21.029Z,101967.79
2023-05-06T22:37:49.047Z,101965.30
2023-05-06T22:40:17.034Z,101967.41
2023-05-06T22:42:45.017Z,101970.84
2023-05-06T22:45:13.343Z,101968.14
2023-05-06T22:47:41.705Z,101970.98
2023-05-06T22:50:10.184Z,101976.35
2023-05-06T22:52:38.187Z,101980.36
2023-05-06T22:55:07.036Z,101984.69
2023-05-06T22:57:35.070Z,101983.81
2023-05-06T23:00:03.938Z,101979.32
2023-05-06T23:02:32.031Z,101985.27
2023-05-06T23:05:00.687Z,101986.50
2023-05-06T23:07:28.651Z,101989.46
2023-05-06T23:09:56.516Z,101989.20
2023-05-06T23:12:24.476Z,101990.54
2023-05-06T23:14:53.622Z,101995.26
2023-05-06T23:17:21.769Z,101994.21
2023-05-06T23:19:53.349Z,101993.05
2023-05-06T23:22:21.483Z,101993.74
2023-05-06T23:24:49.517Z,101993.21
2023-05-06T23:27:17.441Z,101995.21
2023-05-06T23:29:46.380Z,101994.72
2023-05-06T23:32:15.225Z,101998.77
2023-05-06T23:34:43.252Z,101997.86
2023-05-06T23:37:12.467Z,102000.14
2023-05-06T23:39:40.477Z,102002.86
2023-05-06T23:42:08.424Z,102004.34
2023-05-06T23:44:36.926Z,102008.71
2023-05-06T23:47:07.385Z,102010.63
2023-05-06T23:49:36.174Z,102012.90
2023-05-06T23:52:04.549Z,102015.08
2023-05-06T23:54:32.901Z,102012.00
2023-05-06T23:57:04.172Z,102008.33
2023-05-06T23:59:32.535Z,102005.38
